createdAt,value
2022-12-08T00:00:56.663Z,94.77
2022-12-08T00:05:16.882Z,94.89
2022-12-08T00:09:23.537Z,94.85
2022-12-08T00:13:25.328Z,95.06
2022-12-08T00:17:27.024Z,95.35
2022-12-08T00:21:29.500Z,94.99
2022-12-08T00:25:35.037Z,95.59
2022-12-08T00:29:37.065Z,95.50
2022-12-08T00:33:39.440Z,95.42
2022-12-08T00:37:41.156Z,95.54
2022-12-08T00:42:03.375Z,96.06
2022-12-08T00:46:05.287Z,95.95
2022-12-08T00:50:08.231Z,95.70
2022-12-08T00:54:11.039Z,95.84
2022-12-08T00:58:12.752Z,96.13
2022-12-08T01:02:15.077Z,95.97
2022-12-08T01:06:17.173Z,95.94
2022-12-08T01:10:18.890Z,96.07
2022-12-08T01:14:21.189Z,95.99
2022-12-08T01:18:22.886Z,96.11
2022-12-08T01:22:24.772Z,96.00
2022-12-08T01:26:26.745Z,96.14
2022-12-08T01:30:28.589Z,96.18
2022-12-08T01:34:30.413Z,96.40
2022-12-08T01:38:32.845Z,96.41
2022-12-08T01:42:34.742Z,96.53
2022-12-08T01:46:42.220Z,96.77
2022-12-08T01:50:44.681Z,96.78
2022-12-08T01:54:51.596Z,96.17
2022-12-08T01:58:55.825Z,95.95
2022-12-08T02:03:12.033Z,96.02
2022-12-08T02:07:16.469Z,96.20
2022-12-08T02:11:18.256Z,95.76
2022-12-08T02:15:24.291Z,95.78
2022-12-08T02:19:57.993Z,96.29
2022-12-08T02:24:21.568Z,96.42
2022-12-08T02:28:32.084Z,96.58
2022-12-08T02:32:36.386Z,96.44
2022-12-08T02:36:49.199Z,96.60
2022-12-08T02:41:20.661Z,96.54
2022-12-08T02:45:33.649Z,96.46
2022-12-08T02:49:36.044Z,96.27
2022-12-08T02:53:37.862Z,96.03
2022-12-08T02:58:16.667Z,95.92
2022-12-08T03:02:53.897Z,96.31
2022-12-08T03:07:33.895Z,96.03
2022-12-08T03:12:03.188Z,96.17
2022-12-08T03:16:09.047Z,95.66
2022-12-08T03:20:16.493Z,96.07
2022-12-08T03:24:20.032Z,96.26
2022-12-08T03:28:22.118Z,96.44
2022-12-08T03:32:28.551Z,96.46
2022-12-08T03:36:30.277Z,96.52
2022-12-08T03:40:32.011Z,96.73
2022-12-08T03:44:33.803Z,96.61
2022-12-08T03:48:35.446Z,96.14
2022-12-08T03:52:37.127Z,95.61
2022-12-08T03:56:41.446Z,95.31
2022-12-08T04:00:43.219Z,95.10
2022-12-08T04:04:44.880Z,94.59
2022-12-08T04:08:46.653Z,94.97
2022-12-08T04:12:48.352Z,94.99
2022-12-08T04:16:50.081Z,95.36
2022-12-08T04:20:51.754Z,95.08
2022-12-08T04:24:53.415Z,95.50
2022-12-08T04:28:55.184Z,95.40
2022-12-08T04:32:56.865Z,95.73
2022-12-08T04:36:58.521Z,95.79
2022-12-08T04:41:00.733Z,96.21
2022-12-08T04:45:02.624Z,95.93
2022-12-08T04:49:04.316Z,95.94
2022-12-08T04:53:06.053Z,95.76
2022-12-08T04:57:07.808Z,95.78
2022-12-08T05:01:09.773Z,95.68
2022-12-08T05:05:11.619Z,95.54
2022-12-08T05:09:13.359Z,95.29
2022-12-08T05:13:15.036Z,95.51
2022-12-08T05:17:18.050Z,95.52
2022-12-08T05:21:19.760Z,95.85
2022-12-08T05:25:21.496Z,96.17
2022-12-08T05:29:23.432Z,96.38
2022-12-08T05:33:25.159Z,96.71
2022-12-08T05:37:26.857Z,96.89
2022-12-08T05:41:28.851Z,96.65
2022-12-08T05:45:30.955Z,96.94
2022-12-08T05:49:32.699Z,96.62
2022-12-08T05:53:34.454Z,97.08
2022-12-08T05:57:36.197Z,97.02
2022-12-08T06:01:38.016Z,97.04
2022-12-08T06:05:41.123Z,96.68
2022-12-08T06:09:42.991Z,97.04
2022-12-08T06:13:44.710Z,97.25
2022-12-08T06:17:46.488Z,97.04
2022-12-08T06:21:48.281Z,96.97
2022-12-08T06:25:49.972Z,96.77
2022-12-08T06:29:51.784Z,97.21
2022-12-08T06:33:55.016Z,97.13
2022-12-08T06:37:56.695Z,97.06
2022-12-08T06:42:16.928Z,97.12
2022-12-08T06:46:19.893Z,97.19
2022-12-08T06:50:21.768Z,97.00
2022-12-08T06:54:23.492Z,97.18
2022-12-08T06:58:25.246Z,97.54
2022-12-08T07:02:27.038Z,97.60
2022-12-08T07:06:28.884Z,97.35
2022-12-08T07:10:31.213Z,97.80
2022-12-08T07:14:32.967Z,97.63
2022-12-08T07:18:34.859Z,97.34
2022-12-08T07:22:36.743Z,97.37
2022-12-08T07:26:38.491Z,97.51
2022-12-08T07:30:40.275Z,97.50
2022-12-08T07:34:42.024Z,97.70
2022-12-08T07:38:44.364Z,97.34
2022-12-08T07:42:46.033Z,97.81
2022-12-08T07:46:47.714Z,97.83
2022-12-08T07:50:49.435Z,97.39
2022-12-08T07:54:51.159Z,97.37
2022-12-08T07:58:53.006Z,97.84
2022-12-08T08:02:54.894Z,97.58
2022-12-08T08:06:56.681Z,97.27
2022-12-08T08:10:58.878Z,97.14
2022-12-08T08:15:01.621Z,97.28
2022-12-08T08:19:03.372Z,97.61
2022-12-08T08:23:05.048Z,97.83
2022-12-08T08:27:06.771Z,97.84
2022-12-08T08:31:08.533Z,97.85
2022-12-08T08:35:10.431Z,98.00
2022-12-08T08:39:12.691Z,97.75
2022-12-08T08:43:32.944Z,97.99
2022-12-08T08:47:39.428Z,97.68
2022-12-08T08:51:41.256Z,97.61
2022-12-08T08:55:43.005Z,97.87
2022-12-08T08:59:44.707Z,97.91
2022-12-08T09:03:47.195Z,97.97
2022-12-08T09:07:48.937Z,97.79
2022-12-08T09:11:50.637Z,97.75
2022-12-08T09:15:52.470Z,97.79
2022-12-08T09:19:54.297Z,97.69
2022-12-08T09:23:58.668Z,97.63
2022-12-08T09:28:00.538Z,97.43
2022-12-08T09:32:02.275Z,97.41
2022-12-08T09:36:05.043Z,96.95
2022-12-08T09:40:07.994Z,97.27
2022-12-08T09:44:30.977Z,96.48
2022-12-08T09:48:37.721Z,96.19
2022-12-08T09:53:12.057Z,96.70
2022-12-08T09:57:17.890Z,96.68
2022-12-08T10:01:21.561Z,96.50
2022-12-08T10:05:25.947Z,97.00
2022-12-08T10:09:45.726Z,96.91
2022-12-08T10:14:04.469Z,96.85
2022-12-08T10:18:14.039Z,96.65
2022-12-08T10:22:27.097Z,96.69
2022-12-08T10:26:32.723Z,96.37
2022-12-08T10:30:34.486Z,96.22
2022-12-08T10:35:07.335Z,96.26
2022-12-08T10:39:29.884Z,96.17
2022-12-08T10:43:33.368Z,96.25
2022-12-08T10:47:44.654Z,96.47
2022-12-08T10:51:46.890Z,96.23
2022-12-08T10:55:51.914Z,96.37
2022-12-08T10:59:57.533Z,96.00
2022-12-08T11:04:01.881Z,95.83
2022-12-08T11:08:05.190Z,95.90
2022-12-08T11:12:15.042Z,95.61
2022-12-08T11:16:19.160Z,95.86
2022-12-08T11:20:23.438Z,95.84
2022-12-08T11:24:32.280Z,95.57
2022-12-08T11:28:35.215Z,95.71
2022-12-08T11:32:40.543Z,95.64
2022-12-08T11:36:42.335Z,95.92
2022-12-08T11:40:44.745Z,95.61
2022-12-08T11:45:12.114Z,95.79
2022-12-08T11:49:14.737Z,96.15
2022-12-08T11:53:26.956Z,95.71
2022-12-08T11:57:30.511Z,96.42
2022-12-08T12:01:32.219Z,96.14
2022-12-08T12:06:12.610Z,96.06
2022-12-08T12:10:09.785Z,96.12
2022-12-08T12:14:39.846Z,95.88
2022-12-08T12:18:46.665Z,95.50
2022-12-08T12:22:55.765Z,95.62
2022-12-08T12:27:07.415Z,95.42
2022-12-08T12:31:15.406Z,95.25
2022-12-08T12:35:27.563Z,94.90
2022-12-08T12:39:31.454Z,94.91
2022-12-08T12:43:35.817Z,94.99
2022-12-08T12:47:56.940Z,94.64
2022-12-08T12:51:58.940Z,94.67
2022-12-08T12:56:02.585Z,94.50
2022-12-08T13:00:04.180Z,94.47
2022-12-08T13:04:10.740Z,94.05
2022-12-08T13:08:31.440Z,94.30
2022-12-08T13:12:33.335Z,94.30
2022-12-08T13:16:38.791Z,93.98
2022-12-08T13:20:53.080Z,94.22
2022-12-08T13:25:36.848Z,94.16
2022-12-08T13:29:39.601Z,94.57
2022-12-08T13:33:41.895Z,94.42
2022-12-08T13:37:54.872Z,94.69
2022-12-08T13:42:21.805Z,94.25
2022-12-08T13:56:59.373Z,94.25
2022-12-08T14:00:22.070Z,94.38
2022-12-08T14:09:06.902Z,94.00
2022-12-08T14:13:12.555Z,94.57
2022-12-08T14:17:22.092Z,94.33
2022-12-08T14:21:34.437Z,94.98
2022-12-08T14:25:38.821Z,94.93
2022-12-08T14:29:47.736Z,95.28
2022-12-08T14:33:56.126Z,94.95
2022-12-08T14:38:01.027Z,95.17
2022-12-08T14:42:02.845Z,95.31
2022-12-08T14:46:19.351Z,95.32
2022-12-08T14:51:12.230Z,95.95
2022-12-08T14:55:16.038Z,95.83
2022-12-08T14:59:25.857Z,96.06
2022-12-08T15:03:31.543Z,95.92
2022-12-08T15:07:43.942Z,95.76
2022-12-08T15:11:45.827Z,96.15
2022-12-08T15:15:55.418Z,95.75
2022-12-08T15:19:59.012Z,96.24
2022-12-08T15:24:00.934Z,96.21
2022-12-08T15:28:03.400Z,96.14
2022-12-08T15:32:09.742Z,96.63
2022-12-08T15:36:11.820Z,97.01
2022-12-08T15:40:19.634Z,97.03
2022-12-08T15:44:21.326Z,97.29
2022-12-08T15:48:26.974Z,97.06
2022-12-08T15:52:28.628Z,97.06
2022-12-08T15:56:30.489Z,97.36
2022-12-08T16:00:53.029Z,97.47
2022-12-08T16:09:23.333Z,97.75
2022-12-08T16:13:57.662Z,97.83
2022-12-08T16:18:02.105Z,97.88
2022-12-08T16:22:44.904Z,97.45
2022-12-08T16:30:47.342Z,97.48
2022-12-08T16:34:49.744Z,97.58
2022-12-08T16:38:51.482Z,97.05
2022-12-08T16:42:53.160Z,97.42
2022-12-08T16:46:54.891Z,97.37
2022-12-08T16:50:56.714Z,97.31
2022-12-08T16:54:58.467Z,97.17
2022-12-08T16:59:00.940Z,97.51
2022-12-08T17:03:08.213Z,97.53
2022-12-08T17:07:10.042Z,97.81
2022-12-08T17:11:21.519Z,97.63
2022-12-08T17:15:25.657Z,97.28
2022-12-08T17:19:27.369Z,97.64
2022-12-08T17:23:29.183Z,97.48
2022-12-08T17:27:31.166Z,97.69
2022-12-08T17:31:33.322Z,97.51
2022-12-08T17:35:35.017Z,97.91
2022-12-08T17:39:38.278Z,97.56
2022-12-08T17:43:40.076Z,97.64
2022-12-08T17:47:41.815Z,97.41
2022-12-08T17:51:45.420Z,97.45
2022-12-08T17:55:55.800Z,97.35
2022-12-08T17:59:57.491Z,97.38
2022-12-08T18:03:59.426Z,97.90
2022-12-08T18:08:02.063Z,97.68
2022-12-08T18:12:03.887Z,98.03
2022-12-08T18:16:05.705Z,98.17
2022-12-08T18:20:08.433Z,98.09
2022-12-08T18:24:17.752Z,98.04
2022-12-08T18:28:19.515Z,98.48
2022-12-08T18:32:23.719Z,98.41
2022-12-08T18:36:26.192Z,98.11
2022-12-08T18:40:28.571Z,98.03
2022-12-08T18:44:30.681Z,98.27
2022-12-08T18:48:32.351Z,98.40
2022-12-08T18:52:34.345Z,98.42
2022-12-08T18:56:36.943Z,98.30
2022-12-08T19:00:38.664Z,98.17
2022-12-08T19:04:43.883Z,98.24
2022-12-08T19:08:45.856Z,97.93
2022-12-08T19:12:50.747Z,97.79
2022-12-08T19:16:52.567Z,97.68
2022-12-08T19:20:56.943Z,97.87
2022-12-08T19:24:58.683Z,97.87
2022-12-08T19:29:00.545Z,97.73
2022-12-08T19:33:02.297Z,98.02
2022-12-08T19:37:04.168Z,97.98
2022-12-08T19:41:24.366Z,98.10
2022-12-08T19:45:26.128Z,97.84
2022-12-08T19:49:28.461Z,98.35
2022-12-08T19:53:30.194Z,98.21
2022-12-08T19:57:31.854Z,98.43
2022-12-08T20:01:33.786Z,98.44
2022-12-08T20:05:36.825Z,98.80
2022-12-08T20:09:38.524Z,98.53
2022-12-08T20:13:45.619Z,98.38
2022-12-08T20:17:47.334Z,98.56
2022-12-08T20:21:49.165Z,98.28
2022-12-08T20:25:50.949Z,98.61
2022-12-08T20:29:52.732Z,98.59
2022-12-08T20:33:54.871Z,98.32
2022-12-08T20:37:56.577Z,98.35
2022-12-08T20:42:00.224Z,98.55
2022-12-08T20:46:13.659Z,98.79
2022-12-08T20:50:15.465Z,98.87
2022-12-08T20:54:17.241Z,98.76
2022-12-08T20:58:18.924Z,99.37
2022-12-08T21:02:20.663Z,99.18
2022-12-08T21:06:27.021Z,99.26
2022-12-08T21:10:28.895Z,99.68
2022-12-08T21:14:30.907Z,99.91
2022-12-08T21:18:38.931Z,99.62
2022-12-08T21:22:41.397Z,100.00
2022-12-08T21:26:43.348Z,100.00
2022-12-08T21:30:45.293Z,100.00
2022-12-08T21:34:47.132Z,99.95
2022-12-08T21:38:49.372Z,100.00
2022-12-08T21:42:51.840Z,100.00
2022-12-08T21:46:53.809Z,100.00
2022-12-08T21:50:56.179Z,100.00
2022-12-08T21:54:58.061Z,100.00
2022-12-08T21:58:59.899Z,100.00
2022-12-08T22:03:01.848Z,100.00
2022-12-08T22:07:03.941Z,100.00
2022-12-08T22:11:06.734Z,99.83
2022-12-08T22:15:10.276Z,99.67
2022-12-08T22:19:12.659Z,99.47
2022-12-08T22:23:14.520Z,99.74
2022-12-08T22:27:16.246Z,99.28
2022-12-08T22:31:21.036Z,99.55
2022-12-08T22:35:22.822Z,99.40
2022-12-08T22:39:24.592Z,99.14
2022-12-08T22:43:26.494Z,99.29
2022-12-08T22:47:28.162Z,98.97
2022-12-08T22:51:29.980Z,99.01
2022-12-08T22:55:31.775Z,98.95
2022-12-08T22:59:34.678Z,99.01
2022-12-08T23:03:36.517Z,99.39
2022-12-08T23:07:39.106Z,99.24
2022-12-08T23:11:40.964Z,99.33
2022-12-08T23:15:42.772Z,99.25
2022-12-08T23:19:44.864Z,99.49
2022-12-08T23:23:46.669Z,99.87
2022-12-08T23:27:48.570Z,99.23
2022-12-08T23:31:50.415Z,99.59
2022-12-08T23:35:57.700Z,99.49
2022-12-08T23:39:59.887Z,99.73
2022-12-08T23:44:01.645Z,100.00
2022-12-08T23:48:03.614Z,100.00
2022-12-08T23:52:05.445Z,100.00
2022-12-08T23:56:10.140Z,100.00
